Time,TemperatureF,DewpointF,PressureIn,WindDirection,WindDirectionDegrees,WindSpeedMPH,WindSpeedGustMPH,Humidity,HourlyPrecipIn,Conditions,Clouds,dailyrainin,SoftwareType,DateUTC
2013-09-23 00:12:00,58.0,52.0,29.75,SE,146,2.0,3.0,79,0.00,,,0.00,,2013-09-23 05:12:00,
2013-09-23 00:23:00,58.0,52.0,29.75,SE,146,2.0,3.0,79,0.00,,,0.00,,2013-09-23 05:23:00,
2013-09-23 00:53:00,58.0,52.0,29.75,SE,135,5.0,5.0,80,0.00,,,0.00,,2013-09-23 05:53:00,
2013-09-23 01:13:00,58.0,52.0,29.74,SE,131,4.0,5.0,81,0.00,,,0.00,,2013-09-23 06:13:00,
2013-09-23 01:22:00,58.0,52.0,29.74,SE,131,4.0,5.0,81,0.00,,,0.00,,2013-09-23 06:22:00,
2013-09-23 01:52:00,59.0,53.0,29.75,SSE,163,2.0,3.0,81,0.00,,,0.00,,2013-09-23 06:52:00,
2013-09-23 02:11:00,58.0,52.0,29.75,SSW,198,2.0,3.0,81,0.00,,,0.00,,2013-09-23 07:11:00,
2013-09-23 02:22:00,58.0,52.0,29.75,SSW,198,2.0,3.0,81,0.00,,,0.00,,2013-09-23 07:22:00,
2013-09-23 02:52:00,58.0,52.0,29.75,South,169,2.0,2.0,81,0.00,,,0.00,,2013-09-23 07:52:00,
2013-09-23 03:11:00,58.0,52.0,29.75,SW,228,3.0,4.0,81,0.00,,,0.00,,2013-09-23 08:11:00,
2013-09-23 03:23:00,58.0,52.0,29.75,SW,228,3.0,4.0,81,0.00,,,0.00,,2013-09-23 08:23:00,
2013-09-23 03:52:00,58.0,52.0,29.74,South,180,4.0,4.0,81,0.00,,,0.00,,2013-09-23 08:52:00,
2013-09-23 04:11:00,58.0,53.0,29.75,SW,231,2.0,2.0,82,0.00,,,0.00,,2013-09-23 09:11:00,
2013-09-23 04:21:00,58.0,53.0,29.75,SW,231,2.0,2.0,82,0.00,,,0.00,,2013-09-23 09:21:00,
2013-09-23 04:53:00,58.0,53.0,29.75,SE,146,3.0,3.0,82,0.00,,,0.00,,2013-09-23 09:53:00,
2013-09-23 05:13:00,58.0,53.0,29.75,SSE,158,2.0,2.0,82,0.00,,,0.00,,2013-09-23 10:13:00,
2013-09-23 05:23:00,58.0,53.0,29.75,SSE,158,2.0,2.0,82,0.00,,,0.00,,2013-09-23 10:23:00,
2013-09-23 05:42:00,58.0,53.0,29.76,SSW,203,2.0,2.0,82,0.00,,,0.00,,2013-09-23 10:42:00,
2013-09-23 05:53:00,58.0,53.0,29.76,SSW,203,2.0,2.0,82,0.00,,,0.00,,2013-09-23 10:53:00,
2013-09-23 06:12:00,58.0,53.0,29.76,South,189,2.0,3.0,82,0.00,,,0.00,,2013-09-23 11:12:00,
2013-09-23 06:22:00,58.0,53.0,29.76,South,189,2.0,3.0,82,0.00,,,0.00,,2013-09-23 11:22:00,
2013-09-23 06:52:00,57.0,52.0,29.76,SE,135,5.0,5.0,82,0.00,,,0.00,,2013-09-23 11:52:00,
2013-09-23 07:11:00,57.0,52.0,29.77,SSE,167,2.0,3.0,82,0.00,,,0.00,,2013-09-23 12:11:00,
2013-09-23 07:22:00,57.0,52.0,29.77,SSE,167,2.0,3.0,82,0.00,,,0.00,,2013-09-23 12:22:00,
2013-09-23 07:52:00,57.0,52.0,29.77,South,171,4.0,4.0,82,0.00,,,0.00,,2013-09-23 12:52:00,
2013-09-23 08:22:00,57.0,52.0,29.78,SSW,203,2.0,2.0,82,0.00,,,0.00,,2013-09-23 13:22:00,
2013-09-23 08:52:00,57.0,51.0,29.78,SSW,203,1.0,1.0,81,0.00,,,0.00,,2013-09-23 13:52:00,
2013-09-23 09:22:00,57.0,51.0,29.77,ESE,117,5.0,6.0,81,0.00,,,0.00,,2013-09-23 14:22:00,
2013-09-23 09:52:00,58.0,52.0,29.77,SSW,207,5.0,6.0,79,0.00,,,0.00,,2013-09-23 14:52:00,
2013-09-23 10:11:00,59.0,51.0,29.77,SE,138,5.0,6.0,76,0.00,,,0.00,,2013-09-23 15:11:00,
2013-09-23 10:21:00,59.0,51.0,29.77,SE,138,5.0,6.0,76,0.00,,,0.00,,2013-09-23 15:21:00,
2013-09-23 10:54:00,60.0,52.0,29.77,SW,225,2.0,2.0,76,0.00,,,0.00,,2013-09-23 15:54:00,
2013-09-23 11:12:00,61.0,52.0,29.77,SSW,203,3.0,3.0,73,0.00,,,0.00,,2013-09-23 16:12:00,
2013-09-23 11:24:00,61.0,52.0,29.77,SSW,203,3.0,3.0,73,0.00,,,0.00,,2013-09-23 16:24:00,
2013-09-23 11:53:00,63.0,54.0,29.77,SSW,203,4.0,4.0,72,0.00,,,0.00,,2013-09-23 16:53:00,
2013-09-23 12:12:00,64.0,54.0,29.79,South,190,3.0,5.0,70,0.00,,,0.00,,2013-09-23 17:12:00,
2013-09-23 12:24:00,64.0,54.0,29.79,South,190,3.0,5.0,70,0.00,,,0.00,,2013-09-23 17:24:00,
2013-09-23 12:52:00,65.0,53.0,29.79,South,177,7.0,8.0,66,0.00,,,0.00,,2013-09-23 17:52:00,
2013-09-23 13:12:00,66.0,54.0,29.79,South,180,7.0,10.0,66,0.00,,,0.00,,2013-09-23 18:12:00,
2013-09-23 13:22:00,66.0,54.0,29.79,South,180,7.0,10.0,66,0.00,,,0.00,,2013-09-23 18:22:00,
2013-09-23 13:52:00,67.0,55.0,29.78,SE,143,6.0,6.0,65,0.00,,,0.00,,2013-09-23 18:52:00,
2013-09-23 14:12:00,68.0,55.0,29.77,SSE,164,5.0,6.0,63,0.00,,,0.00,,2013-09-23 19:12:00,
2013-09-23 14:22:00,68.0,55.0,29.77,SSE,164,5.0,6.0,63,0.00,,,0.00,,2013-09-23 19:22:00,
2013-09-23 14:53:00,68.0,54.0,29.76,SSW,196,3.0,4.0,62,0.00,,,0.00,,2013-09-23 19:53:00,
2013-09-23 15:12:00,68.0,54.0,29.76,WSW,245,3.0,3.0,62,0.00,,,0.00,,2013-09-23 20:12:00,
2013-09-23 15:22:00,68.0,54.0,29.76,WSW,245,3.0,3.0,62,0.00,,,0.00,,2013-09-23 20:22:00,
2013-09-23 15:52:00,68.0,54.0,29.75,SSW,199,4.0,5.0,61,0.00,,,0.00,,2013-09-23 20:52:00,
2013-09-23 16:11:00,68.0,54.0,29.76,SSW,203,4.0,4.0,60,0.00,,,0.00,,2013-09-23 21:11:00,
2013-09-23 16:23:00,68.0,54.0,29.76,SSW,203,4.0,4.0,60,0.00,,,0.00,,2013-09-23 21:23:00,
2013-09-23 16:54:00,68.0,54.0,29.76,SSE,158,8.0,8.0,60,0.00,,,0.00,,2013-09-23 21:54:00,
2013-09-23 17:13:00,68.0,54.0,29.77,South,187,4.0,4.0,61,0.00,,,0.00,,2013-09-23 22:13:00,
2013-09-23 17:24:00,68.0,54.0,29.77,South,187,4.0,4.0,61,0.00,,,0.00,,2013-09-23 22:24:00,
2013-09-23 17:54:00,68.0,54.0,29.77,South,187,4.0,4.0,62,0.00,,,0.00,,2013-09-23 22:54:00,
2013-09-23 18:12:00,67.0,54.0,29.78,SSE,158,1.0,2.0,63,0.00,,,0.00,,2013-09-23 23:12:00,
2013-09-23 18:22:00,67.0,54.0,29.78,SSE,158,1.0,2.0,63,0.00,,,0.00,,2013-09-23 23:22:00,
2013-09-23 18:42:00,66.0,54.0,29.78,SE,135,2.0,2.0,65,0.00,,,0.00,,2013-09-23 23:42:00,
2013-09-23 18:54:00,66.0,54.0,29.78,SE,135,2.0,2.0,65,0.00,,,0.00,,2013-09-23 23:54:00,
2013-09-23 19:22:00,66.0,54.0,29.79,South,180,1.0,1.0,66,0.00,,,0.00,,2013-09-24 00:22:00,
2013-09-23 19:42:00,65.0,54.0,29.78,SSE,158,2.0,2.0,67,0.00,,,0.00,,2013-09-24 00:42:00,
2013-09-23 19:52:00,65.0,54.0,29.78,SSE,158,2.0,2.0,67,0.00,,,0.00,,2013-09-24 00:52:00,
2013-09-23 20:12:00,64.0,54.0,29.79,SE,135,3.0,3.0,69,0.00,,,0.00,,2013-09-24 01:12:00,
2013-09-23 20:22:00,64.0,54.0,29.79,SE,135,3.0,3.0,69,0.00,,,0.00,,2013-09-24 01:22:00,
2013-09-23 20:43:00,63.0,53.0,29.79,SSE,158,1.0,2.0,70,0.00,,,0.00,,2013-09-24 01:43:00,
2013-09-23 20:52:00,63.0,53.0,29.79,SSE,158,1.0,2.0,70,0.00,,,0.00,,2013-09-24 01:52:00,
2013-09-23 21:12:00,63.0,54.0,29.80,SW,225,1.0,1.0,73,0.00,,,0.00,,2013-09-24 02:12:00,
2013-09-23 21:22:00,63.0,54.0,29.80,SW,225,1.0,1.0,73,0.00,,,0.00,,2013-09-24 02:22:00,
2013-09-23 21:52:00,62.0,53.0,29.81,SSW,213,2.0,2.0,73,0.00,,,0.00,,2013-09-24 02:52:00,
2013-09-23 22:12:00,61.0,52.0,29.82,SSE,158,0.0,0.0,73,0.00,,,0.00,,2013-09-24 03:12:00,
2013-09-23 22:22:00,61.0,52.0,29.82,SSE,158,0.0,0.0,73,0.00,,,0.00,,2013-09-24 03:22:00,
2013-09-23 22:55:00,61.0,53.0,29.82,ESE,113,1.0,1.0,74,0.00,,,0.00,,2013-09-24 03:55:00,
2013-09-23 23:14:00,61.0,53.0,29.82,SSE,165,3.0,3.0,74,0.00,,,0.00,,2013-09-24 04:14:00,
2013-09-23 23:24:00,61.0,53.0,29.82,SSE,165,3.0,3.0,74,0.00,,,0.00,,2013-09-24 04:24:00,
2013-09-23 23:54:00,61.0,53.0,29.82,SE,134,1.0,2.0,74,0.00,,,0.00,,2013-09-24 04:54:00,